Time;durP1;ratioP1;P1;durP2;ratioP2;P2;SDS_P1;SDS_P2;PMS_P1;PMS_P2;Temp;Humidity;BMP_temperature;BMP_pressure;BME280_temperature;BME280_humidity;BME280_pressure;Samples;Min_cycle;Max_cycle;Signal;HPM_P1;HPM_P2
2020/12/21 00:00:43;;;;;;;53.90;32.53;;;;;;;-144.15;0.00;65763.66;10360521;28;20079;-69
2020/12/21 00:05:46;;;;;;;52.72;31.98;;;;;;;-144.15;0.00;65763.66;10356644;28;20064;-70
2020/12/21 00:10:44;;;;;;;47.75;29.17;;;;;;;-144.15;0.00;65763.66;10360139;28;21231;-70
2020/12/21 00:15:42;;;;;;;52.15;30.42;;;;;;;-144.15;0.00;65763.66;10355931;28;20082;-71
2020/12/21 00:20:40;;;;;;;52.97;31.45;;;;;;;-144.15;0.00;65763.66;10359240;28;20059;-70
2020/12/21 00:25:38;;;;;;;47.05;29.48;;;;;;;-144.15;0.00;65763.66;10360070;28;20071;-70
2020/12/21 00:30:37;;;;;;;48.92;29.73;;;;;;;-144.15;0.00;65763.66;10359787;28;20094;-71
2020/12/21 00:35:34;;;;;;;50.47;32.22;;;;;;;-144.15;0.00;65763.66;10359751;28;20074;-71
2020/12/21 00:40:32;;;;;;;52.28;31.33;;;;;;;-144.15;0.00;65763.66;10358815;28;20067;-71
2020/12/21 00:45:31;;;;;;;52.88;30.08;;;;;;;-144.15;0.00;65763.66;10358687;28;20079;-71
2020/12/21 00:50:29;;;;;;;51.30;31.42;;;;;;;-144.15;0.00;65763.66;10358397;28;20087;-70
2020/12/21 00:55:26;;;;;;;50.83;30.02;;;;;;;-144.15;0.00;65763.66;10356491;28;20076;-70
2020/12/21 01:00:24;;;;;;;50.35;29.20;;;;;;;-144.15;0.00;65763.66;10357836;28;20080;-71
2020/12/21 01:05:23;;;;;;;48.40;31.40;;;;;;;-144.15;0.00;65763.66;10357675;28;20353;-70
2020/12/21 01:10:20;;;;;;;51.33;29.73;;;;;;;-144.15;0.00;65763.66;10358195;28;20079;-71
2020/12/21 01:15:18;;;;;;;45.70;29.90;;;;;;;-144.15;0.00;65763.66;10357324;28;20095;-71
2020/12/21 01:20:16;;;;;;;44.20;27.75;;;;;;;-144.15;0.00;65763.66;10357515;28;20575;-71
2020/12/21 01:25:16;;;;;;;44.00;27.00;;;;;;;-144.15;0.00;65763.66;10357756;28;20060;-71
2020/12/21 01:30:14;;;;;;;53.60;30.77;;;;;;;-144.15;0.00;65763.66;10338250;28;20181;-70
2020/12/21 01:35:12;;;;;;;58.70;33.78;;;;;;;-144.15;0.00;65763.66;10357388;28;20075;-69
2020/12/21 01:40:10;;;;;;;45.05;28.00;;;;;;;-144.15;0.00;65763.66;10352067;28;20063;-70
2020/12/21 01:45:09;;;;;;;46.92;27.80;;;;;;;-144.15;0.00;65763.66;10356980;28;20138;-70
2020/12/21 01:50:07;;;;;;;46.67;29.42;;;;;;;-144.15;0.00;65763.66;10356156;28;20444;-71
2020/12/21 01:55:05;;;;;;;43.30;27.58;;;;;;;-144.15;0.00;65763.66;10356532;28;20067;-70
2020/12/21 02:00:04;;;;;;;37.58;25.90;;;;;;;-144.15;0.00;65763.66;10355276;28;20082;-70
2020/12/21 02:05:10;;;;;;;42.65;25.52;;;;;;;-144.15;0.00;65763.66;10358324;28;20079;-70
2020/12/21 02:10:08;;;;;;;40.83;25.92;;;;;;;-144.15;0.00;65763.66;10356084;28;20063;-70
2020/12/21 02:15:05;;;;;;;39.88;27.13;;;;;;;-144.15;0.00;65763.66;10355201;28;20075;-70
2020/12/21 02:20:03;;;;;;;39.78;26.45;;;;;;;-144.15;0.00;65763.66;10355651;28;20071;-71
2020/12/21 02:25:02;;;;;;;36.28;25.05;;;;;;;-144.15;0.00;65763.66;10354823;28;20068;-70
2020/12/21 02:30:00;;;;;;;40.13;27.27;;;;;;;-144.15;0.00;65763.66;10354587;28;20071;-70
2020/12/21 02:34:57;;;;;;;36.88;26.02;;;;;;;-144.15;0.00;65763.66;10355404;28;20083;-71
2020/12/21 02:39:55;;;;;;;41.63;26.95;;;;;;;-144.15;0.00;65763.66;10349814;28;20448;-71
2020/12/21 02:44:53;;;;;;;40.60;27.65;;;;;;;-144.15;0.00;65763.66;10353928;28;20071;-70
2020/12/21 02:49:51;;;;;;;40.95;26.20;;;;;;;-144.15;0.00;65763.66;10354548;28;20072;-70
2020/12/21 02:54:49;;;;;;;41.15;27.58;;;;;;;-144.15;0.00;65763.66;10354150;28;20516;-69
2020/12/21 02:59:47;;;;;;;47.28;29.20;;;;;;;-144.15;0.00;65763.66;10354663;28;20493;-69
2020/12/21 03:04:46;;;;;;;41.53;29.08;;;;;;;-144.15;0.00;65763.66;10354765;28;20056;-69
2020/12/21 03:09:43;;;;;;;46.03;29.80;;;;;;;-144.15;0.00;65763.66;10353798;28;20079;-70
2020/12/21 03:14:41;;;;;;;47.47;31.65;;;;;;;-144.15;0.00;65763.66;10358516;28;20082;-70
2020/12/21 03:19:39;;;;;;;88.10;54.00;;;;;;;-144.15;0.00;65763.66;10362292;28;20055;-71
2020/12/21 03:24:38;;;;;;;46.53;30.83;;;;;;;-144.15;0.00;65763.66;10362409;28;20475;-70
2020/12/21 03:29:36;;;;;;;45.33;25.85;;;;;;;-144.15;0.00;65763.66;10361002;28;20067;-70
2020/12/21 03:34:33;;;;;;;45.67;29.85;;;;;;;-144.15;0.00;65763.66;10361904;28;20071;-71
2020/12/21 03:39:31;;;;;;;43.92;28.83;;;;;;;-144.15;0.00;65763.66;10361623;28;20080;-72
2020/12/21 03:44:30;;;;;;;43.05;29.02;;;;;;;-144.15;0.00;65763.66;10360503;28;20441;-72
2020/12/21 03:49:28;;;;;;;45.17;29.98;;;;;;;-144.15;0.00;65763.66;10360147;28;20493;-73
2020/12/21 03:54:26;;;;;;;36.90;23.95;;;;;;;-144.15;0.00;65763.66;10360985;28;20067;-72
2020/12/21 03:59:24;;;;;;;35.28;25.58;;;;;;;-144.15;0.00;65763.66;10355869;28;20070;-72
2020/12/21 04:04:22;;;;;;;36.35;25.50;;;;;;;-144.15;0.00;65763.66;10360043;28;20067;-70
2020/12/21 04:09:20;;;;;;;36.30;23.55;;;;;;;-144.15;0.00;65763.66;10359904;28;20044;-71
2020/12/21 04:14:18;;;;;;;38.75;26.92;;;;;;;-144.15;0.00;65763.66;10359881;28;20079;-72
2020/12/21 04:19:15;;;;;;;39.42;25.52;;;;;;;-144.15;0.00;65763.66;10359812;28;20059;-72
2020/12/21 04:24:14;;;;;;;35.20;23.60;;;;;;;-144.15;0.00;65763.66;10359292;28;20071;-71
2020/12/21 04:29:12;;;;;;;33.92;23.25;;;;;;;-144.15;0.00;65763.66;10359488;28;20864;-69
2020/12/21 04:34:10;;;;;;;33.95;23.50;;;;;;;-144.15;0.00;65763.66;10359394;28;20523;-71
2020/12/21 04:39:07;;;;;;;32.72;22.83;;;;;;;-144.15;0.00;65763.66;10352983;28;20064;-71
2020/12/21 04:44:06;;;;;;;38.53;24.70;;;;;;;-144.15;0.00;65763.66;10358941;28;20457;-72
2020/12/21 04:49:04;;;;;;;47.38;27.23;;;;;;;-144.15;0.00;65763.66;10358023;28;20064;-72
2020/12/21 04:54:02;;;;;;;32.95;22.23;;;;;;;-144.15;0.00;65763.66;10358225;28;20484;-72
2020/12/21 04:59:00;;;;;;;27.17;20.35;;;;;;;-144.15;0.00;65763.66;10358228;28;20063;-71
2020/12/21 05:04:00;;;;;;;33.67;23.58;;;;;;;-144.15;0.00;65763.66;10357823;28;20063;-73
2020/12/21 05:09:01;;;;;;;41.25;28.05;;;;;;;-144.15;0.00;65763.66;10358284;28;20476;-73
2020/12/21 05:14:11;;;;;;;30.48;23.10;;;;;;;-144.15;0.00;65763.66;10356007;28;20071;-73
2020/12/21 05:19:21;;;;;;;37.05;22.48;;;;;;;-144.15;0.00;65763.66;10355093;28;20095;-72
2020/12/21 05:24:21;;;;;;;57.67;32.63;;;;;;;-144.15;0.00;65763.66;10352225;28;20593;-73
2020/12/21 05:29:26;;;;;;;75.25;40.42;;;;;;;-144.15;0.00;65763.66;10355270;28;20079;-72
2020/12/21 05:34:26;;;;;;;38.10;23.20;;;;;;;-144.15;0.00;65763.66;10354633;28;20087;-72
2020/12/21 05:39:24;;;;;;;51.67;31.83;;;;;;;-144.15;0.00;65763.66;10353080;28;20337;-71
2020/12/21 05:44:21;;;;;;;55.10;31.15;;;;;;;-144.15;0.00;65763.66;10355363;28;20072;-72
2020/12/21 05:49:20;;;;;;;30.85;21.38;;;;;;;-144.15;0.00;65763.66;10336279;28;20079;-72
2020/12/21 05:54:19;;;;;;;40.42;23.02;;;;;;;-144.15;0.00;65763.66;10354146;28;20067;-72
2020/12/21 05:59:18;;;;;;;29.30;19.67;;;;;;;-144.15;0.00;65763.66;10349647;28;20067;-71
2020/12/21 06:04:23;;;;;;;45.10;26.48;;;;;;;-144.15;0.00;65763.66;10353196;28;20064;-73
2020/12/21 06:09:35;;;;;;;32.05;20.80;;;;;;;-144.15;0.00;65763.66;10352458;28;20072;-73
2020/12/21 06:14:35;;;;;;;27.83;17.95;;;;;;;-144.15;0.00;65763.66;10332048;28;622930;-72
2020/12/21 06:19:33;;;;;;;28.15;18.00;;;;;;;-144.15;0.00;65763.66;10355296;28;20173;-73
2020/12/21 06:24:37;;;;;;;30.50;18.80;;;;;;;-144.15;0.00;65763.66;10335399;28;20505;-72
2020/12/21 06:29:36;;;;;;;;;;;;;;;-144.15;0.00;65763.66;10353750;28;20064;-73
2020/12/21 06:34:38;;;;;;;27.58;17.75;;;;;;;-144.15;0.00;65763.66;10350822;28;19982;-72
2020/12/21 06:39:59;;;;;;;23.45;16.55;;;;;;;-144.15;0.00;65763.66;10347463;28;20091;-72
2020/12/21 06:44:57;;;;;;;25.98;20.00;;;;;;;-144.15;0.00;65763.66;10351314;28;20067;-73
2020/12/21 06:49:55;;;;;;;24.55;16.05;;;;;;;-144.15;0.00;65763.66;10354945;28;20067;-72
2020/12/21 07:08:38;;;;;;;27.83;22.10;;;;;;;;;;10392394;27;20769;-62
2020/12/21 07:13:36;;;;;;;31.92;22.58;;;;;;;;;;10392134;28;20511;-62
2020/12/21 07:18:33;;;;;;;34.58;24.73;;;;;;;;;;10391852;28;20773;-62
2020/12/21 07:23:30;;;;;;;37.90;24.90;;;;;;;;;;10391646;28;20060;-62
2020/12/21 07:28:29;;;;;;;30.38;20.95;;;;;;;;;;10391930;28;20067;-62
2020/12/21 07:33:26;;;;;;;31.40;25.20;;;;;;;;;;10391166;28;20106;-62
2020/12/21 07:38:23;;;;;;;25.15;19.45;;;;;;;;;;10391479;28;20048;-62
2020/12/21 07:43:24;;;;;;;25.88;19.90;;;;;;;;;;10390587;28;20048;-62
2020/12/21 07:48:22;;;;;;;38.53;27.15;;;;;;;;;;10372361;28;20055;-62
2020/12/21 07:53:19;;;;;;;37.65;26.27;;;;;;;;;;10372500;28;20044;-62
2020/12/21 07:58:17;;;;;;;40.30;28.58;;;;;;;;;;10390484;28;20424;-63
2020/12/21 08:03:14;;;;;;;39.22;25.35;;;;;;;;;;10390310;28;20044;-63
2020/12/21 08:08:13;;;;;;;81.55;42.42;;;;;;;;;;10351775;28;20257;-63
2020/12/21 08:13:17;;;;;;;65.20;45.80;;;;;;;;;;10362497;28;20505;-62
2020/12/21 08:18:14;;;;;;;62.25;34.75;;;;;;;;;;10362105;28;20067;-63
2020/12/21 08:23:21;;;;;;;34.60;27.38;;;;;;;;;;10360886;28;20097;-63
2020/12/21 08:28:31;;;;;;;89.25;41.55;;;;;;;;;;10361730;28;20079;-63
2020/12/21 08:33:29;;;;;;;41.97;32.22;;;;;;;;;;10360789;28;20525;-63
2020/12/21 08:38:27;;;;;;;55.38;33.20;;;;;;;;;;10361662;28;20301;-63
2020/12/21 08:43:24;;;;;;;40.13;27.73;;;;;;;;;;10360433;28;20079;-63
2020/12/21 08:48:21;;;;;;;38.00;27.33;;;;;;;;;;10361153;28;20052;-63
2020/12/21 08:53:19;;;;;;;36.13;26.08;;;;;;;;;;10342350;28;20406;-62
2020/12/21 08:58:17;;;;;;;45.92;33.50;;;;;;;;;;10359738;28;20524;-62
2020/12/21 09:03:14;;;;;;;44.72;29.23;;;;;;;;;;10359796;28;20044;-64
2020/12/21 09:08:12;;;;;;;72.47;50.55;;;;;;;;;;10360186;28;20076;-62
2020/12/21 09:13:09;;;;;;;53.97;37.55;;;;;;;;;;10359368;28;20199;-61
2020/12/21 09:18:08;;;;;;;63.00;42.92;;;;;;;;;;10358566;28;20101;-62
2020/12/21 09:23:05;;;;;;;46.70;30.98;;;;;;;;;;10360546;28;20074;-62
2020/12/21 09:28:03;;;;;;;70.65;44.55;;;;;;;;;;10359748;28;20463;-62
2020/12/21 09:33:01;;;;;;;35.45;24.92;;;;;;;;;;10360025;28;20052;-62
2020/12/21 09:38:00;;;;;;;32.63;23.70;;;;;;;;;;10352033;28;20067;-62
2020/12/21 09:43:03;;;;;;;93.68;64.25;;;;;;;;;;10355887;28;20320;-62
2020/12/21 09:48:00;;;;;;;48.17;34.90;;;;;;;;;;10355084;28;20083;-63
2020/12/21 09:53:00;;;;;;;107.35;59.95;;;;;;;;;;10356112;28;20453;-63
2020/12/21 09:57:57;;;;;;;38.50;29.65;;;;;;;;;;10359414;28;20075;-61
2020/12/21 10:02:54;;;;;;;65.35;42.55;;;;;;;;;;10359178;28;20043;-61
2020/12/21 10:07:52;;;;;;;47.33;30.90;;;;;;;;;;10358496;28;20480;-62
2020/12/21 10:12:51;;;;;;;93.25;56.38;;;;;;;;;;10358178;28;20051;-63
2020/12/21 10:17:48;;;;;;;75.68;48.35;;;;;;;;;;10339544;28;20416;-62
2020/12/21 10:22:45;;;;;;;121.13;68.82;;;;;;;;;;10357856;28;20647;-64
2020/12/21 10:27:42;;;;;;;115.35;75.18;;;;;;;;;;10357668;28;20086;-63
2020/12/21 10:32:43;;;;;;;48.83;36.78;;;;;;;;;;10358054;28;20044;-62
2020/12/21 10:37:40;;;;;;;57.63;37.22;;;;;;;;;;10358043;28;20082;-62
2020/12/21 10:42:37;;;;;;;51.90;32.97;;;;;;;;;;10357974;28;20068;-62
2020/12/21 10:47:35;;;;;;;42.60;28.58;;;;;;;;;;10357959;28;20425;-63
2020/12/21 10:52:34;;;;;;;33.55;23.48;;;;;;;;;;10356839;28;20072;-63
2020/12/21 10:57:31;;;;;;;66.80;41.05;;;;;;;;;;10357516;28;20083;-62
2020/12/21 11:02:28;;;;;;;75.78;48.30;;;;;;;;;;10338914;28;20044;-62
2020/12/21 11:07:28;;;;;;;52.13;33.58;;;;;;;;;;10356891;28;20048;-63
2020/12/21 11:12:39;;;;;;;62.92;52.20;;;;;;;;;;10356688;28;20063;-63
2020/12/21 11:17:37;;;;;;;71.10;46.75;;;;;;;;;;10356440;28;20105;-63
2020/12/21 11:22:35;;;;;;;43.60;31.75;;;;;;;;;;10356406;28;20047;-62
2020/12/21 11:27:32;;;;;;;57.28;41.17;;;;;;;;;;10357094;28;20072;-63
2020/12/21 11:32:31;;;;;;;35.03;25.00;;;;;;;;;;10356530;28;20631;-63
2020/12/21 11:37:29;;;;;;;51.85;39.42;;;;;;;;;;10356867;28;20076;-63
2020/12/21 11:42:26;;;;;;;157.88;140.90;;;;;;;;;;10359564;28;20157;-62
2020/12/21 11:47:23;;;;;;;144.13;103.85;;;;;;;;;;10363860;28;20055;-63
2020/12/21 11:52:21;;;;;;;53.47;37.15;;;;;;;;;;10362482;28;20051;-62
2020/12/21 11:57:19;;;;;;;78.30;44.65;;;;;;;;;;10364046;28;20497;-62
2020/12/21 12:02:16;;;;;;;66.93;50.65;;;;;;;;;;10363920;28;20481;-63
2020/12/21 12:07:13;;;;;;;53.55;41.05;;;;;;;;;;10362583;28;20090;-62
2020/12/21 12:12:13;;;;;;;80.93;53.75;;;;;;;;;;10363687;28;20047;-63
2020/12/21 12:17:10;;;;;;;57.08;34.10;;;;;;;;;;10363795;28;20071;-63
2020/12/21 12:22:07;;;;;;;50.65;35.50;;;;;;;;;;10362006;28;20048;-62
2020/12/21 12:27:05;;;;;;;57.78;42.15;;;;;;;;;;10362297;28;20048;-63
2020/12/21 12:32:05;;;;;;;44.70;29.42;;;;;;;;;;10362185;28;20067;-63
2020/12/21 12:37:02;;;;;;;34.67;26.15;;;;;;;;;;10361519;28;20088;-62
2020/12/21 12:42:00;;;;;;;59.92;38.80;;;;;;;;;;10361781;28;20055;-64
2020/12/21 12:46:57;;;;;;;81.95;54.42;;;;;;;;;;10361647;28;20079;-63
2020/12/21 12:51:56;;;;;;;69.60;47.05;;;;;;;;;;10360436;28;20075;-63
2020/12/21 12:56:53;;;;;;;44.05;31.45;;;;;;;;;;10361672;28;20075;-62
2020/12/21 13:01:50;;;;;;;51.20;34.60;;;;;;;;;;10361482;28;20408;-62
2020/12/21 13:06:48;;;;;;;41.50;32.20;;;;;;;;;;10360283;28;20139;-62
2020/12/21 13:11:46;;;;;;;67.78;42.17;;;;;;;;;;10360655;28;20076;-62
2020/12/21 13:16:43;;;;;;;52.65;37.17;;;;;;;;;;10360942;28;20142;-64
2020/12/21 13:21:40;;;;;;;70.45;46.85;;;;;;;;;;10341761;28;20074;-62
2020/12/21 13:26:38;;;;;;;60.03;40.33;;;;;;;;;;10359326;28;20484;-62
2020/12/21 13:31:36;;;;;;;62.55;41.17;;;;;;;;;;10360269;28;20064;-62
2020/12/21 13:36:34;;;;;;;34.45;25.48;;;;;;;;;;10359624;28;20504;-63
2020/12/21 13:41:31;;;;;;;52.90;37.95;;;;;;;;;;10359230;28;20425;-63
2020/12/21 13:46:29;;;;;;;63.53;42.60;;;;;;;;;;10359155;28;20055;-63
2020/12/21 13:51:27;;;;;;;74.75;49.58;;;;;;;;;;10359442;28;20044;-61
2020/12/21 13:56:24;;;;;;;142.52;103.57;;;;;;;;;;10358445;28;20075;-62
2020/12/21 14:17:06;;;;;;;91.50;63.17;;;;;;;;;;10434346;27;20362;-63
2020/12/21 14:22:04;;;;;;;75.63;51.45;;;;;;;;;;10434055;28;20384;-63
2020/12/21 14:27:02;;;;;;;51.53;36.85;;;;;;;;;;10434522;27;20051;-63
2020/12/21 14:31:59;;;;;;;56.67;39.67;;;;;;;;;;10434409;27;20508;-63
2020/12/21 14:37:02;;;;;;;77.78;44.90;;;;;;;;;;10433722;28;20073;-62
2020/12/21 14:41:59;;;;;;;68.72;42.70;;;;;;;;;;10434117;27;20047;-64
2020/12/21 14:52:28;;;;;;;82.15;50.63;;;;;;;;;;10406440;28;20416;-64
2020/12/21 15:03:35;;;;;;;104.28;67.97;;;;;;;;;;10449569;27;20086;-64
2020/12/21 15:08:36;;;;;;;117.18;68.38;;;;;;;;;;10468786;27;20586;-63
2020/12/21 15:13:55;;;;;;;93.82;59.47;;;;;;;;;;10465920;27;20075;-62
2020/12/21 15:19:27;;;;;;;76.57;50.15;;;;;;;;;;10440777;27;20082;-64
2020/12/21 15:24:31;;;;;;;75.95;51.97;;;;;;;;;;10305572;27;20075;-62
2020/12/21 15:29:28;;;;;;;105.47;65.57;;;;;;;;;;10409928;27;20073;-62
2020/12/21 15:34:26;;;;;;;128.30;75.43;;;;;;;;;;10390651;27;20094;-61
2020/12/21 15:39:23;;;;;;;105.65;73.90;;;;;;;;;;10371597;27;20109;-62
2020/12/21 15:44:21;;;;;;;105.95;69.50;;;;;;;;;;10379164;27;20488;-62
2020/12/21 15:49:19;;;;;;;94.85;60.10;;;;;;;;;;10367626;28;20156;-61
2020/12/21 15:54:16;;;;;;;83.38;57.28;;;;;;;;;;10378693;28;20594;-62
2020/12/21 15:59:13;;;;;;;80.25;52.75;;;;;;;;;;10374192;28;20078;-62
2020/12/21 16:04:12;;;;;;;67.80;45.17;;;;;;;;;;10373077;28;20106;-62
2020/12/21 16:09:09;;;;;;;94.00;59.90;;;;;;;;;;10371939;28;20444;-63
2020/12/21 16:14:06;;;;;;;110.57;67.32;;;;;;;;;;10380717;28;20083;-62
2020/12/21 16:19:04;;;;;;;95.10;57.30;;;;;;;;;;10361449;27;20055;-63
2020/12/21 16:24:02;;;;;;;164.82;119.80;;;;;;;;;;10360153;28;20051;-63
2020/12/21 16:29:00;;;;;;;148.07;92.32;;;;;;;;;;10359291;28;20484;-63
2020/12/21 16:33:57;;;;;;;117.05;75.05;;;;;;;;;;10359892;28;20481;-64
2020/12/21 16:38:54;;;;;;;89.80;55.35;;;;;;;;;;10359141;28;20072;-63
2020/12/21 16:43:53;;;;;;;102.78;67.47;;;;;;;;;;10367512;28;20523;-63
2020/12/21 16:48:50;;;;;;;94.65;62.80;;;;;;;;;;10382649;28;20039;-63
2020/12/21 16:53:48;;;;;;;71.80;46.28;;;;;;;;;;10369039;28;20505;-63
2020/12/21 16:58:45;;;;;;;133.48;88.40;;;;;;;;;;10375983;28;20164;-63
2020/12/21 17:03:45;;;;;;;114.03;79.63;;;;;;;;;;10359958;27;20134;-63
2020/12/21 17:08:43;;;;;;;146.35;107.05;;;;;;;;;;10368790;28;20076;-62
2020/12/21 17:13:40;;;;;;;112.07;67.40;;;;;;;;;;10376857;28;20071;-62
2020/12/21 17:18:37;;;;;;;62.05;42.38;;;;;;;;;;10375744;28;20059;-62
2020/12/21 17:23:36;;;;;;;46.33;32.90;;;;;;;;;;10357944;28;20534;-62
2020/12/21 17:28:34;;;;;;;43.78;32.42;;;;;;;;;;10372479;28;20535;-64
2020/12/21 17:33:31;;;;;;;48.63;33.35;;;;;;;;;;10378480;28;20080;-62
2020/12/21 17:38:28;;;;;;;83.97;55.15;;;;;;;;;;10357025;28;20048;-62
2020/12/21 17:43:26;;;;;;;52.30;38.50;;;;;;;;;;10357209;28;20121;-62
2020/12/21 17:48:24;;;;;;;80.43;51.60;;;;;;;;;;10357531;28;20408;-62
2020/12/21 17:53:21;;;;;;;85.72;55.33;;;;;;;;;;10356579;28;20040;-63
2020/12/21 17:58:18;;;;;;;68.88;43.90;;;;;;;;;;10356853;28;20448;-62
2020/12/21 18:03:16;;;;;;;74.82;46.83;;;;;;;;;;10356704;28;20575;-62
2020/12/21 18:08:14;;;;;;;58.10;40.28;;;;;;;;;;10356468;28;20115;-63
2020/12/21 18:13:11;;;;;;;65.20;43.03;;;;;;;;;;10356981;28;20044;-62
2020/12/21 18:18:08;;;;;;;103.07;68.43;;;;;;;;;;10356896;28;20048;-63
2020/12/21 18:23:06;;;;;;;65.57;41.20;;;;;;;;;;10356565;28;20076;-63
2020/12/21 18:28:04;;;;;;;62.33;44.45;;;;;;;;;;10356996;28;20485;-62
2020/12/21 18:33:01;;;;;;;69.10;44.50;;;;;;;;;;10357416;28;20044;-63
2020/12/21 18:37:59;;;;;;;119.93;78.30;;;;;;;;;;10356262;28;20504;-63
2020/12/21 18:42:58;;;;;;;66.10;44.47;;;;;;;;;;10355946;28;20075;-65
2020/12/21 18:47:55;;;;;;;90.00;58.95;;;;;;;;;;10356530;28;20075;-63
2020/12/21 18:52:57;;;;;;;81.22;50.65;;;;;;;;;;10362846;28;20079;-62
2020/12/21 18:57:55;;;;;;;132.20;70.25;;;;;;;;;;10362986;28;20072;-63
2020/12/21 19:02:53;;;;;;;132.02;76.60;;;;;;;;;;10363356;28;20076;-63
2020/12/21 19:07:50;;;;;;;311.92;145.23;;;;;;;;;;10363258;28;20201;-62
2020/12/21 19:12:47;;;;;;;106.68;62.85;;;;;;;;;;10362603;28;20051;-62
2020/12/21 19:17:45;;;;;;;89.38;58.05;;;;;;;;;;10362444;28;20048;-62
2020/12/21 19:22:43;;;;;;;85.05;49.92;;;;;;;;;;10360547;28;20036;-62
2020/12/21 19:27:40;;;;;;;86.32;53.70;;;;;;;;;;10362482;28;20044;-62
2020/12/21 19:32:37;;;;;;;139.27;74.25;;;;;;;;;;10362216;28;20040;-63
2020/12/21 19:37:35;;;;;;;76.95;46.28;;;;;;;;;;10361965;28;20498;-63
2020/12/21 19:42:34;;;;;;;71.57;45.28;;;;;;;;;;10360596;28;20464;-63
2020/12/21 19:47:46;;;;;;;174.55;106.47;;;;;;;;;;10361785;28;20059;-62
2020/12/21 19:52:43;;;;;;;98.10;65.72;;;;;;;;;;10361768;28;20040;-63
2020/12/21 19:57:41;;;;;;;179.63;114.05;;;;;;;;;;10359714;28;20421;-63
2020/12/21 20:02:40;;;;;;;95.53;54.75;;;;;;;;;;10361562;28;20048;-64
2020/12/21 20:07:37;;;;;;;69.35;47.78;;;;;;;;;;10360708;28;20090;-64
2020/12/21 20:12:41;;;;;;;66.63;44.90;;;;;;;;;;10360588;28;20109;-63
2020/12/21 20:17:40;;;;;;;62.95;40.75;;;;;;;;;;10361012;28;20161;-62
2020/12/21 20:22:37;;;;;;;66.88;43.67;;;;;;;;;;10360097;28;20437;-63
2020/12/21 20:27:37;;;;;;;83.90;54.17;;;;;;;;;;10360596;28;20527;-62
2020/12/21 20:32:36;;;;;;;260.90;143.25;;;;;;;;;;10360082;28;20067;-63
2020/12/21 20:37:37;;;;;;;86.40;58.20;;;;;;;;;;10359708;28;20059;-62
2020/12/21 20:42:34;;;;;;;96.50;59.08;;;;;;;;;;10359605;28;20481;-62
2020/12/21 20:47:33;;;;;;;67.82;49.10;;;;;;;;;;10359496;28;20083;-63
2020/12/21 20:52:31;;;;;;;75.25;51.88;;;;;;;;;;10359471;28;20048;-63
2020/12/21 20:57:29;;;;;;;82.68;60.15;;;;;;;;;;10357436;28;20076;-62
2020/12/21 21:02:26;;;;;;;62.80;44.35;;;;;;;;;;10358683;28;20413;-62
2020/12/21 21:07:25;;;;;;;71.70;51.42;;;;;;;;;;10358432;28;20079;-63
2020/12/21 21:12:23;;;;;;;87.07;57.55;;;;;;;;;;10355682;28;20464;-63
2020/12/21 21:17:21;;;;;;;85.93;59.60;;;;;;;;;;10357975;28;20051;-64
2020/12/21 21:22:18;;;;;;;97.50;66.95;;;;;;;;;;10357852;28;20082;-63
2020/12/21 21:27:15;;;;;;;80.85;45.28;;;;;;;;;;10356744;28;20047;-63
2020/12/21 21:32:19;;;;;;;68.07;40.53;;;;;;;;;;10358218;28;20047;-63
2020/12/21 21:37:17;;;;;;;72.75;44.65;;;;;;;;;;10357987;28;20044;-64
2020/12/21 21:42:15;;;;;;;83.38;52.08;;;;;;;;;;10357877;28;20412;-63
2020/12/21 21:47:13;;;;;;;58.20;36.28;;;;;;;;;;10357232;28;20531;-63
2020/12/21 21:52:14;;;;;;;50.08;32.40;;;;;;;;;;10357258;28;20052;-62
2020/12/21 21:57:13;;;;;;;52.53;35.00;;;;;;;;;;10355614;28;20044;-62
2020/12/21 22:02:11;;;;;;;61.20;42.88;;;;;;;;;;10356830;28;20074;-62
2020/12/21 22:07:08;;;;;;;56.92;37.22;;;;;;;;;;10357218;28;20052;-64
2020/12/21 22:12:05;;;;;;;54.67;36.05;;;;;;;;;;10357201;28;20071;-63
2020/12/21 22:17:03;;;;;;;62.42;40.83;;;;;;;;;;10356959;28;20541;-63
2020/12/21 22:22:00;;;;;;;104.55;65.72;;;;;;;;;;10356907;28;20048;-63
2020/12/21 22:26:58;;;;;;;113.68;72.65;;;;;;;;;;10362010;28;20087;-63
2020/12/21 22:31:55;;;;;;;96.55;58.72;;;;;;;;;;10364645;28;20044;-63
2020/12/21 22:36:54;;;;;;;95.05;54.75;;;;;;;;;;10364397;28;20048;-63
2020/12/21 22:41:51;;;;;;;67.88;42.70;;;;;;;;;;10364182;28;20044;-63
2020/12/21 22:46:49;;;;;;;79.30;51.42;;;;;;;;;;10363860;28;20075;-63
2020/12/21 22:51:46;;;;;;;46.40;33.45;;;;;;;;;;10362097;28;20533;-63
2020/12/21 22:56:45;;;;;;;89.47;52.58;;;;;;;;;;10364032;28;20055;-63
2020/12/21 23:01:42;;;;;;;56.78;38.42;;;;;;;;;;10363417;28;20508;-63
2020/12/21 23:06:40;;;;;;;47.20;32.40;;;;;;;;;;10362044;28;20579;-63
2020/12/21 23:11:37;;;;;;;52.80;35.78;;;;;;;;;;10363645;28;20424;-64
2020/12/21 23:16:35;;;;;;;63.90;40.83;;;;;;;;;;10363368;28;20056;-63
2020/12/21 23:21:33;;;;;;;62.75;42.33;;;;;;;;;;10362547;28;20040;-63
2020/12/21 23:26:30;;;;;;;69.20;41.97;;;;;;;;;;10363471;28;20079;-63
2020/12/21 23:31:28;;;;;;;91.55;54.97;;;;;;;;;;10363567;28;20054;-63
2020/12/21 23:36:26;;;;;;;62.40;44.00;;;;;;;;;;10362757;28;20076;-63
2020/12/21 23:41:24;;;;;;;99.05;61.80;;;;;;;;;;10361534;28;20497;-63
2020/12/21 23:46:21;;;;;;;67.13;44.50;;;;;;;;;;10362812;28;20091;-62
2020/12/21 23:51:22;;;;;;;70.55;48.75;;;;;;;;;;10361985;28;20062;-62
2020/12/21 23:56:20;;;;;;;69.13;46.38;;;;;;;;;;10362395;28;20072;-63
